createdAt,value
2023-03-22T00:01:44.254Z,85.53
2023-03-22T00:04:13.444Z,73.53
2023-03-22T00:06:44.099Z,75.27
2023-03-22T00:09:14.547Z,83.53
2023-03-22T00:11:43.753Z,70.13
2023-03-22T00:14:13.088Z,68.43
2023-03-22T00:16:42.004Z,72.23
2023-03-22T00:19:11.683Z,68.20
2023-03-22T00:21:40.678Z,69.67
2023-03-22T00:24:10.934Z,67.83
2023-03-22T00:26:42.264Z,67.93
2023-03-22T00:29:11.372Z,68.73
2023-03-22T00:31:41.511Z,65.50
2023-03-22T00:34:10.733Z,71.67
2023-03-22T00:36:41.398Z,66.67
2023-03-22T00:39:10.351Z,73.50
2023-03-22T00:41:40.869Z,81.40
2023-03-22T00:44:11.158Z,77.83
2023-03-22T00:46:40.405Z,79.10
2023-03-22T00:49:10.061Z,71.07
2023-03-22T00:51:39.179Z,82.20
2023-03-22T00:54:08.623Z,65.27
2023-03-22T00:56:37.952Z,79.53
2023-03-22T00:59:15.501Z,70.13
2023-03-22T01:01:45.729Z,80.20
2023-03-22T01:04:18.671Z,77.20
2023-03-22T01:06:48.415Z,71.40
2023-03-22T01:09:17.748Z,78.57
2023-03-22T01:11:48.361Z,75.20
2023-03-22T01:14:19.915Z,77.63
2023-03-22T01:16:49.652Z,71.50
2023-03-22T01:19:18.749Z,66.77
2023-03-22T01:21:47.794Z,73.27
2023-03-22T01:24:17.361Z,78.03
2023-03-22T01:26:46.828Z,66.23
2023-03-22T01:29:16.045Z,63.73
2023-03-22T01:31:47.361Z,68.13
2023-03-22T01:34:16.356Z,70.73
2023-03-22T01:36:45.569Z,73.80
2023-03-22T01:39:15.374Z,67.53
2023-03-22T01:41:47.238Z,63.40
2023-03-22T01:44:21.141Z,66.07
2023-03-22T01:46:53.826Z,66.10
2023-03-22T01:49:27.622Z,70.70
2023-03-22T01:51:59.317Z,58.00
2023-03-22T01:54:56.193Z,61.07
2023-03-22T01:57:34.186Z,61.37
2023-03-22T02:00:04.816Z,59.47
2023-03-22T02:02:53.328Z,58.13
2023-03-22T02:05:30.816Z,60.33
2023-03-22T02:08:02.905Z,63.60
2023-03-22T02:10:40.079Z,61.70
2023-03-22T02:13:30.520Z,62.03
2023-03-22T02:16:33.146Z,64.07
2023-03-22T02:19:42.860Z,61.33
2023-03-22T02:22:40.078Z,56.33
2023-03-22T02:25:29.476Z,64.37
2023-03-22T02:28:30.263Z,64.07
2023-03-22T02:31:18.578Z,65.67
2023-03-22T02:34:16.292Z,64.03
2023-03-22T02:37:22.183Z,65.13
2023-03-22T02:39:57.533Z,56.23
2023-03-22T02:42:38.545Z,61.93
2023-03-22T02:45:16.068Z,69.90
2023-03-22T02:47:55.543Z,62.20
2023-03-22T02:50:30.667Z,63.10
2023-03-22T02:53:06.730Z,60.73
2023-03-22T02:55:42.820Z,62.87
2023-03-22T02:58:17.444Z,56.77
2023-03-22T03:00:50.275Z,65.97
2023-03-22T03:03:20.489Z,59.60
2023-03-22T03:05:56.545Z,59.77
2023-03-22T03:08:27.763Z,61.27
2023-03-22T03:10:59.207Z,65.43
2023-03-22T03:13:29.812Z,59.40
2023-03-22T03:16:02.255Z,62.33
2023-03-22T03:18:45.000Z,56.53
2023-03-22T03:21:30.767Z,62.00
2023-03-22T03:24:10.664Z,64.57
2023-03-22T03:26:50.954Z,62.97
2023-03-22T03:29:29.703Z,66.00
2023-03-22T03:32:06.993Z,66.87
2023-03-22T03:34:46.122Z,63.03
2023-03-22T03:37:19.826Z,62.83
2023-03-22T03:39:54.229Z,61.80
2023-03-22T03:42:28.574Z,65.50
2023-03-22T03:44:59.111Z,63.60
2023-03-22T03:47:30.325Z,59.80
2023-03-22T03:49:59.658Z,58.03
2023-03-22T03:52:30.069Z,63.43
2023-03-22T03:54:59.119Z,66.57
2023-03-22T03:57:35.300Z,66.13
2023-03-22T04:00:05.469Z,61.47
2023-03-22T04:02:43.125Z,60.47
2023-03-22T04:05:24.409Z,60.53
2023-03-22T04:07:55.465Z,65.50
2023-03-22T04:10:25.156Z,67.97
2023-03-22T04:12:56.098Z,64.17
2023-03-22T04:15:26.017Z,66.43
2023-03-22T04:17:58.500Z,63.23
2023-03-22T04:20:32.040Z,56.70
2023-03-22T04:23:02.696Z,58.70
2023-03-22T04:25:34.281Z,60.30
2023-03-22T04:28:11.299Z,56.90
2023-03-22T04:30:40.903Z,61.87
2023-03-22T04:33:28.193Z,62.30
2023-03-22T04:36:16.392Z,60.37
2023-03-22T04:39:12.780Z,68.33
2023-03-22T04:41:46.074Z,68.13
2023-03-22T04:44:16.919Z,72.73
2023-03-22T04:46:51.186Z,66.63
2023-03-22T04:49:20.820Z,58.80
2023-03-22T04:51:49.638Z,59.27
2023-03-22T04:54:28.708Z,64.17
2023-03-22T04:56:58.249Z,65.93
2023-03-22T04:59:31.249Z,67.63
2023-03-22T05:02:01.918Z,63.20
2023-03-22T05:04:38.069Z,75.03
2023-03-22T05:07:15.628Z,75.80
2023-03-22T05:09:51.079Z,74.57
2023-03-22T05:12:20.521Z,74.73
2023-03-22T05:15:13.747Z,66.63
2023-03-22T05:17:42.933Z,81.80
2023-03-22T05:20:14.189Z,73.97
2023-03-22T05:22:46.334Z,87.07
2023-03-22T05:25:16.577Z,86.27
2023-03-22T05:27:50.690Z,92.70
2023-03-22T05:30:36.452Z,88.17
2023-03-22T05:33:35.138Z,82.80
2023-03-22T05:36:06.334Z,79.43
2023-03-22T05:38:42.151Z,74.53
2023-03-22T05:41:11.686Z,80.40
2023-03-22T05:43:40.924Z,78.47
2023-03-22T05:46:14.240Z,77.50
2023-03-22T05:48:52.420Z,83.77
2023-03-22T05:51:21.517Z,75.33
2023-03-22T05:53:54.504Z,76.63
2023-03-22T05:56:30.565Z,82.47
2023-03-22T05:59:07.361Z,80.80
2023-03-22T06:01:39.622Z,76.83
2023-03-22T06:04:35.073Z,79.43
2023-03-22T06:07:10.690Z,83.97
2023-03-22T06:09:58.269Z,94.37
2023-03-22T06:12:31.912Z,88.60
2023-03-22T06:15:09.575Z,95.30
2023-03-22T06:18:15.803Z,94.03
2023-03-22T06:20:48.909Z,92.83
2023-03-22T06:23:23.360Z,102.97
2023-03-22T06:25:52.646Z,103.30
2023-03-22T06:28:22.017Z,106.30
2023-03-22T06:30:53.553Z,106.97
2023-03-22T06:33:42.736Z,99.00
2023-03-22T06:36:24.304Z,106.00
2023-03-22T06:39:26.244Z,105.33
2023-03-22T06:41:56.903Z,99.03
2023-03-22T06:44:26.282Z,110.00
2023-03-22T06:47:07.871Z,97.20
2023-03-22T06:49:55.561Z,82.37
2023-03-22T06:52:29.479Z,78.77
2023-03-22T06:54:59.693Z,72.53
2023-03-22T06:57:29.091Z,66.03
2023-03-22T06:59:58.628Z,63.93
2023-03-22T07:02:27.709Z,65.70
2023-03-22T07:05:16.895Z,61.83
2023-03-22T07:07:46.510Z,65.63
2023-03-22T07:10:15.814Z,58.80
2023-03-22T07:12:46.204Z,61.23
2023-03-22T07:15:26.088Z,58.07
2023-03-22T07:18:08.885Z,58.10
2023-03-22T07:20:44.405Z,54.60
2023-03-22T07:23:21.656Z,51.70
2023-03-22T07:25:56.320Z,56.00
2023-03-22T07:28:32.920Z,54.37
2023-03-22T07:31:05.644Z,45.87
2023-03-22T07:33:46.506Z,49.40
2023-03-22T07:36:17.435Z,46.33
2023-03-22T07:38:47.136Z,45.73
2023-03-22T07:41:24.761Z,46.53
2023-03-22T07:44:16.683Z,46.67
2023-03-22T07:46:54.772Z,46.03
2023-03-22T07:49:28.854Z,50.10
2023-03-22T07:52:07.494Z,47.20
2023-03-22T07:54:38.081Z,49.33
2023-03-22T07:57:17.228Z,55.80
2023-03-22T07:59:52.345Z,53.13
2023-03-22T08:02:21.745Z,53.60
2023-03-22T08:04:56.683Z,46.17
2023-03-22T08:07:47.515Z,41.60
2023-03-22T08:10:17.114Z,33.53
2023-03-22T08:12:46.523Z,35.03
2023-03-22T08:15:23.598Z,31.97
2023-03-22T08:17:53.499Z,33.20
2023-03-22T08:20:34.824Z,32.13
2023-03-22T08:23:14.619Z,30.27
2023-03-22T08:26:16.546Z,35.35
2023-03-22T08:28:45.852Z,28.00
2023-03-22T08:31:16.062Z,30.52
2023-03-22T08:33:47.403Z,27.15
2023-03-22T08:36:19.499Z,27.05
2023-03-22T08:38:58.487Z,27.77
2023-03-22T08:41:41.053Z,28.33
2023-03-22T08:44:10.621Z,24.10
2023-03-22T08:46:40.159Z,21.95
2023-03-22T08:49:10.782Z,26.80
2023-03-22T08:52:07.004Z,22.98
2023-03-22T08:54:54.953Z,21.88
2023-03-22T08:57:43.044Z,25.10
2023-03-22T09:00:47.647Z,24.85
2023-03-22T09:03:40.112Z,24.75
2023-03-22T09:06:11.100Z,23.80
2023-03-22T09:08:43.249Z,25.95
2023-03-22T09:11:18.163Z,24.33
2023-03-22T09:13:54.723Z,24.90
2023-03-22T09:16:24.424Z,26.95
2023-03-22T09:18:53.637Z,26.35
2023-03-22T09:21:24.464Z,22.27
2023-03-22T09:24:11.064Z,22.55
2023-03-22T09:26:50.002Z,20.35
2023-03-22T09:29:21.275Z,24.20
2023-03-22T09:31:50.919Z,22.45
2023-03-22T09:34:24.158Z,24.27
2023-03-22T09:36:54.912Z,20.98
2023-03-22T09:39:29.226Z,21.98
2023-03-22T09:42:06.221Z,19.88
2023-03-22T09:44:38.496Z,19.60
2023-03-22T09:47:18.253Z,18.33
2023-03-22T09:49:53.676Z,18.10
2023-03-22T09:52:23.468Z,16.65
2023-03-22T09:54:53.426Z,20.73
2023-03-22T09:57:34.063Z,17.23
2023-03-22T10:00:14.942Z,17.52
2023-03-22T10:02:54.640Z,19.20
2023-03-22T10:05:31.321Z,20.63
2023-03-22T10:08:34.964Z,19.98
2023-03-22T10:11:04.695Z,16.65
2023-03-22T10:13:42.153Z,18.77
2023-03-22T10:16:18.609Z,20.20
2023-03-22T10:18:53.450Z,18.70
2023-03-22T10:21:23.198Z,18.13
2023-03-22T10:23:56.956Z,21.00
2023-03-22T10:26:31.173Z,18.02
2023-03-22T10:29:04.221Z,17.52
2023-03-22T10:31:35.570Z,16.30
2023-03-22T10:34:07.958Z,19.23
2023-03-22T10:36:40.157Z,17.83
2023-03-22T10:39:17.169Z,17.92
2023-03-22T10:41:47.890Z,15.57
2023-03-22T10:44:21.243Z,17.30
2023-03-22T10:46:52.666Z,17.70
2023-03-22T10:49:26.569Z,15.05
2023-03-22T10:52:00.338Z,15.95
2023-03-22T10:54:31.238Z,14.50
2023-03-22T10:57:00.228Z,18.02
2023-03-22T10:59:49.193Z,18.45
2023-03-22T11:02:21.738Z,16.17
2023-03-22T11:04:53.213Z,17.67
2023-03-22T11:07:35.439Z,19.63
2023-03-22T11:10:24.007Z,19.15
2023-03-22T11:12:56.706Z,18.88
2023-03-22T11:15:30.805Z,17.13
2023-03-22T11:18:02.584Z,14.65
2023-03-22T11:20:32.391Z,14.60
2023-03-22T11:23:05.495Z,29.70
2023-03-22T11:25:37.899Z,13.60
2023-03-22T11:28:17.305Z,16.88
2023-03-22T11:31:01.914Z,14.05
2023-03-22T11:33:32.103Z,14.05
2023-03-22T11:36:02.808Z,14.63
2023-03-22T11:38:38.461Z,15.27
2023-03-22T11:41:11.402Z,19.67
2023-03-22T11:43:44.695Z,16.73
2023-03-22T11:46:17.771Z,16.85
2023-03-22T11:48:48.449Z,15.85
2023-03-22T11:51:20.468Z,14.77
2023-03-22T11:53:50.809Z,21.17
2023-03-22T11:56:29.370Z,20.23
2023-03-22T11:59:01.464Z,19.58
2023-03-22T12:01:38.308Z,18.65
2023-03-22T12:04:13.534Z,18.77
2023-03-22T12:06:43.480Z,15.85
2023-03-22T12:09:26.151Z,14.73
2023-03-22T12:12:04.431Z,14.20
2023-03-22T12:14:41.029Z,14.93
2023-03-22T12:17:18.120Z,17.63
2023-03-22T12:20:06.391Z,16.88
2023-03-22T12:22:37.408Z,15.95
2023-03-22T12:25:13.439Z,13.25
2023-03-22T12:27:46.875Z,12.75
2023-03-22T12:30:19.764Z,13.15
2023-03-22T12:32:53.922Z,14.85
2023-03-22T12:35:26.743Z,15.75
2023-03-22T12:37:59.988Z,15.02
2023-03-22T12:40:33.267Z,12.93
2023-03-22T12:43:09.426Z,12.25
2023-03-22T12:45:43.005Z,11.70
2023-03-22T12:48:18.712Z,12.20
2023-03-22T12:50:52.763Z,11.73
2023-03-22T12:53:23.091Z,11.52
2023-03-22T12:55:53.104Z,10.30
2023-03-22T12:58:25.762Z,8.63
2023-03-22T13:00:58.615Z,8.73
2023-03-22T13:03:32.892Z,8.32
2023-03-22T13:06:06.046Z,8.43
2023-03-22T13:09:13.654Z,7.32
2023-03-22T13:11:43.177Z,6.50
2023-03-22T13:14:19.889Z,8.30
2023-03-22T13:17:00.573Z,11.18
2023-03-22T13:19:36.633Z,5.80
2023-03-22T13:22:27.733Z,9.88
2023-03-22T13:25:02.402Z,11.32
2023-03-22T13:27:45.424Z,6.68
2023-03-22T13:30:24.436Z,6.85
2023-03-22T13:32:56.838Z,7.40
2023-03-22T13:35:29.855Z,5.80
2023-03-22T13:38:05.103Z,6.88
2023-03-22T13:40:38.353Z,7.22
2023-03-22T13:43:22.517Z,8.00
2023-03-22T13:46:13.371Z,5.78
2023-03-22T13:48:54.621Z,8.82
2023-03-22T13:51:32.826Z,6.25
2023-03-22T13:54:09.002Z,6.13
2023-03-22T13:56:57.576Z,7.55
2023-03-22T13:59:31.481Z,7.75
2023-03-22T14:02:05.860Z,9.68
2023-03-22T14:04:41.383Z,10.82
2023-03-22T14:07:22.876Z,7.32
2023-03-22T14:09:54.799Z,7.50
2023-03-22T14:12:30.748Z,6.50
2023-03-22T14:15:03.187Z,10.18
2023-03-22T14:17:37.387Z,6.82
2023-03-22T14:20:10.763Z,7.90
